Time;durP1;ratioP1;P1;durP2;ratioP2;P2;SDS_P1;SDS_P2;PMS_P1;PMS_P2;Temp;Humidity;BMP_temperature;BMP_pressure;BME280_temperature;BME280_humidity;BME280_pressure;Samples;Min_cycle;Max_cycle;Signal;HPM_P1;HPM_P2
2022/09/25 00:02:16;;;;;;;1.10;0.20;;;23.10;49.20;;;;;;6144330;28;20035;-48
2022/09/25 00:05:18;;;;;;;0.20;0.20;;;23.10;49.10;;;;;;6132666;28;20132;-50
2022/09/25 00:08:20;;;;;;;0.10;0.10;;;23.20;49.30;;;;;;6151875;28;20081;-46
2022/09/25 00:11:22;;;;;;;;;;;23.20;49.50;;;;;;6157266;28;20068;-49
2022/09/25 00:14:24;;;;;;;0.73;0.30;;;23.10;49.50;;;;;;6135487;28;20514;-46
2022/09/25 00:17:25;;;;;;;;;;;23.30;49.50;;;;;;6153968;28;20720;-49
2022/09/25 00:20:27;;;;;;;0.40;0.10;;;23.40;49.70;;;;;;6157619;28;19925;-47
2022/09/25 00:23:28;;;;;;;0.10;0.10;;;23.10;49.50;;;;;;6131232;28;20085;-46
2022/09/25 00:26:31;;;;;;;;;;;23.20;49.80;;;;;;6150865;28;20683;-51
2022/09/25 00:29:32;;;;;;;0.10;0.10;;;23.00;49.80;;;;;;6143205;28;20909;-50
2022/09/25 00:32:34;;;;;;;;;;;23.30;49.90;;;;;;6154181;28;20056;-51
2022/09/25 00:35:36;;;;;;;0.32;0.13;;;23.30;50.10;;;;;;6140501;28;20016;-48
2022/09/25 00:38:37;;;;;;;0.25;0.20;;;23.20;49.90;;;;;;6164475;28;20034;-52
2022/09/25 00:41:39;;;;;;;0.30;0.10;;;23.00;50.10;;;;;;6161720;28;21061;-50
2022/09/25 00:44:55;;;;;;;;;;;23.00;50.20;;;;;;6162872;28;20079;-49
2022/09/25 00:47:59;;;;;;;0.17;0.17;;;23.30;50.40;;;;;;6151137;28;20818;-49
2022/09/25 00:51:04;;;;;;;0.20;0.20;;;23.30;50.30;;;;;;6164455;28;20104;-49
2022/09/25 00:54:10;;;;;;;0.20;0.20;;;22.90;50.30;;;;;;6167683;28;20042;-52
2022/09/25 00:57:15;;;;;;;0.15;0.15;;;22.80;50.30;;;;;;6156640;28;21152;-49
2022/09/25 01:00:17;;;;;;;0.28;0.10;;;23.10;50.50;;;;;;6155145;28;20052;-50
2022/09/25 01:03:23;;;;;;;0.30;0.20;;;23.20;50.60;;;;;;6161424;28;20054;-51
2022/09/25 01:06:26;;;;;;;0.28;0.20;;;23.00;50.60;;;;;;6162883;28;21002;-50
2022/09/25 01:09:28;;;;;;;0.30;0.20;;;23.00;50.70;;;;;;6135091;28;20170;-49
2022/09/25 01:12:30;;;;;;;0.25;0.20;;;23.30;50.90;;;;;;6148369;28;20429;-46
2022/09/25 01:15:40;;;;;;;0.15;0.10;;;23.40;51.00;;;;;;6152083;28;20046;-48
2022/09/25 01:18:56;;;;;;;1.05;0.43;;;23.00;50.90;;;;;;6134628;28;20401;-50
2022/09/25 01:22:05;;;;;;;0.10;0.10;;;23.20;51.00;;;;;;6148375;28;20042;-48
2022/09/25 01:25:13;;;;;;;0.30;0.13;;;22.90;50.90;;;;;;6150245;28;20073;-48
2022/09/25 01:28:37;;;;;;;0.20;0.20;;;23.00;51.00;;;;;;6148603;28;20052;-49
2022/09/25 01:31:45;;;;;;;0.15;0.10;;;23.00;51.10;;;;;;6149435;28;20419;-51
2022/09/25 01:34:55;;;;;;;0.10;0.10;;;23.20;51.20;;;;;;6150019;28;20360;-48
2022/09/25 01:38:01;;;;;;;0.15;0.10;;;23.00;51.20;;;;;;6150114;28;20054;-48
2022/09/25 01:41:09;;;;;;;0.10;0.10;;;23.00;51.20;;;;;;6135646;28;20073;-50
2022/09/25 01:44:16;;;;;;;0.22;0.20;;;23.00;51.30;;;;;;6156327;28;20050;-45
2022/09/25 01:47:22;;;;;;;0.20;0.10;;;23.20;51.40;;;;;;6141893;28;20062;-46
2022/09/25 01:50:42;;;;;;;0.10;0.10;;;23.00;51.40;;;;;;6158803;28;20920;-49
2022/09/25 01:53:47;;;;;;;0.10;0.10;;;22.80;51.40;;;;;;6155023;28;20505;-49
2022/09/25 01:56:53;;;;;;;0.20;0.20;;;22.90;51.40;;;;;;6131510;28;20069;-48
2022/09/25 02:00:00;;;;;;;0.17;0.17;;;22.80;51.40;;;;;;6131950;28;20057;-50
2022/09/25 02:03:09;;;;;;;0.30;0.20;;;22.90;51.50;;;;;;6150717;28;20849;-47
2022/09/25 02:06:15;;;;;;;0.20;0.20;;;23.20;51.80;;;;;;6151127;28;20137;-48
2022/09/25 02:09:22;;;;;;;0.20;0.20;;;23.10;51.70;;;;;;6148314;28;20073;-46
2022/09/25 02:12:30;;;;;;;0.17;0.17;;;23.20;51.80;;;;;;6149588;28;20175;-51
2022/09/25 02:15:36;;;;;;;0.15;0.10;;;22.90;51.70;;;;;;6156361;28;20049;-50
2022/09/25 02:22:03;;;;;;;0.85;0.25;;;23.00;51.90;;;;;;6158379;28;20065;-51
2022/09/25 02:25:11;;;;;;;0.20;0.10;;;23.30;52.20;;;;;;6155137;28;20049;-47
2022/09/25 02:28:12;;;;;;;0.20;0.10;;;23.10;52.10;;;;;;6154230;28;20939;-48
2022/09/25 02:31:16;;;;;;;;;;;22.90;52.10;;;;;;6154492;28;20569;-47
2022/09/25 02:34:17;;;;;;;0.10;0.10;;;23.20;52.30;;;;;;6154679;28;20180;-48
2022/09/25 02:37:19;;;;;;;0.20;0.20;;;23.10;52.20;;;;;;6150012;28;20111;-49
2022/09/25 02:40:24;;;;;;;0.10;0.10;;;23.20;52.30;;;;;;6155184;28;20462;-47
2022/09/25 02:43:37;;;;;;;0.20;0.20;;;23.10;52.30;;;;;;6154978;28;20046;-47
2022/09/25 02:46:50;;;;;;;0.20;0.10;;;22.90;52.40;;;;;;6157630;28;20085;-47
2022/09/25 02:50:01;;;;;;;0.10;0.10;;;23.10;52.50;;;;;;6139373;28;20596;-50
2022/09/25 02:53:10;;;;;;;0.10;0.10;;;23.00;52.50;;;;;;6144594;28;20163;-46
2022/09/25 02:56:16;;;;;;;0.10;0.10;;;22.90;52.50;;;;;;6159833;28;20112;-47
2022/09/25 02:59:22;;;;;;;0.20;0.10;;;23.10;52.60;;;;;;6155490;28;20626;-49
2022/09/25 03:02:26;;;;;;;0.10;0.10;;;22.80;52.60;;;;;;6157986;28;20046;-48
2022/09/25 03:05:27;;;;;;;0.20;0.20;;;23.10;52.70;;;;;;6155023;28;20488;-47
2022/09/25 03:08:37;;;;;;;0.10;0.10;;;22.70;52.60;;;;;;6156887;28;20046;-45
2022/09/25 03:11:40;;;;;;;0.20;0.13;;;22.90;52.80;;;;;;6159187;28;20088;-47
2022/09/25 03:14:42;;;;;;;0.20;0.20;;;22.90;52.80;;;;;;6159568;28;20580;-47
2022/09/25 03:17:45;;;;;;;0.10;0.10;;;22.70;52.80;;;;;;6155103;28;20554;-45
2022/09/25 03:20:46;;;;;;;0.20;0.15;;;23.10;53.00;;;;;;6156509;28;20179;-47
2022/09/25 03:23:48;;;;;;;0.15;0.15;;;22.90;52.90;;;;;;6154077;28;20053;-47
2022/09/25 03:26:50;;;;;;;0.20;0.20;;;23.10;53.10;;;;;;6157951;28;20169;-49
2022/09/25 03:29:52;;;;;;;0.10;0.10;;;22.90;53.10;;;;;;6149634;28;20048;-49
2022/09/25 03:32:54;;;;;;;0.20;0.20;;;23.10;53.20;;;;;;6152010;28;20140;-48
2022/09/25 03:36:01;;;;;;;0.52;0.10;;;23.00;53.20;;;;;;6150438;28;20192;-46
2022/09/25 03:39:06;;;;;;;0.10;0.10;;;22.80;53.10;;;;;;6148158;28;20112;-49
2022/09/25 03:42:07;;;;;;;0.20;0.20;;;22.80;53.10;;;;;;6152225;28;20049;-49
2022/09/25 03:45:10;;;;;;;;;;;22.90;53.20;;;;;;6159892;28;20049;-47
2022/09/25 03:48:12;;;;;;;0.20;0.20;;;23.10;53.60;;;;;;6156986;28;19929;-48
2022/09/25 03:51:14;;;;;;;0.63;0.20;;;23.00;53.30;;;;;;6153060;28;20415;-46
2022/09/25 03:54:15;;;;;;;0.10;0.10;;;22.80;53.30;;;;;;6133022;28;20169;-51
2022/09/25 03:57:17;;;;;;;0.30;0.20;;;22.80;53.30;;;;;;6147464;28;20167;-47
2022/09/25 04:00:18;;;;;;;;;;;22.90;53.50;;;;;;6152911;28;20045;-46
2022/09/25 04:03:21;;;;;;;0.10;0.10;;;22.50;53.30;;;;;;6151226;28;20024;-47
2022/09/25 04:06:25;;;;;;;0.20;0.20;;;22.60;53.20;;;;;;6150142;28;20042;-46
2022/09/25 04:09:26;;;;;;;0.82;0.20;;;22.60;53.40;;;;;;6119280;28;20046;-47
2022/09/25 04:12:28;;;;;;;0.20;0.20;;;23.10;53.70;;;;;;6154127;28;20034;-45
2022/09/25 04:15:30;;;;;;;;;;;22.30;53.40;;;;;;6156306;28;20457;-49
2022/09/25 04:18:33;;;;;;;0.30;0.20;;;23.00;53.80;;;;;;6151892;28;20370;-46
2022/09/25 04:21:34;;;;;;;0.20;0.20;;;22.40;53.30;;;;;;6142396;28;20314;-46
2022/09/25 04:27:48;;;;;;;0.00;0.00;;;22.80;53.70;;;;;;6148510;28;20233;-46
2022/09/25 04:30:50;;;;;;;0.45;0.30;;;22.50;53.50;;;;;;6149296;28;20294;-46
2022/09/25 04:33:52;;;;;;;0.20;0.20;;;22.80;53.70;;;;;;6147221;28;20046;-48
2022/09/25 04:36:53;;;;;;;0.38;0.20;;;22.70;53.80;;;;;;6147099;28;20045;-47
2022/09/25 04:39:58;;;;;;;;;;;22.50;53.70;;;;;;6144325;28;20433;-46
2022/09/25 04:43:01;;;;;;;0.20;0.20;;;22.80;53.90;;;;;;6151829;28;19929;-45
2022/09/25 04:46:05;;;;;;;0.20;0.13;;;22.40;53.60;;;;;;6134997;28;20045;-50
2022/09/25 04:49:07;;;;;;;0.10;0.10;;;22.70;67.70;;;;;;6152725;28;20052;-46
2022/09/25 04:52:11;;;;;;;0.10;0.10;;;22.90;54.10;;;;;;6144205;28;20122;-48
2022/09/25 04:55:12;;;;;;;0.10;0.10;;;22.80;54.00;;;;;;6146979;28;20595;-46
2022/09/25 04:58:14;;;;;;;0.22;0.20;;;23.00;54.20;;;;;;6146272;28;20198;-50
2022/09/25 05:01:16;;;;;;;;;;;22.60;54.00;;;;;;6145257;28;20319;-50
2022/09/25 05:04:19;;;;;;;0.10;0.10;;;22.40;53.90;;;;;;6147382;28;19929;-48
2022/09/25 05:07:20;;;;;;;0.10;0.10;;;22.60;54.00;;;;;;6146858;28;20318;-49
2022/09/25 05:10:22;;;;;;;;;;;22.70;54.10;;;;;;6150188;28;20754;-47
2022/09/25 05:13:23;;;;;;;0.10;0.10;;;22.90;54.20;;;;;;6150511;28;20462;-49
2022/09/25 05:16:27;;;;;;;;;;;22.60;54.00;;;;;;6156668;28;20573;-45
2022/09/25 05:19:29;;;;;;;0.35;0.20;;;22.70;54.20;;;;;;6158657;28;20480;-48
2022/09/25 05:22:31;;;;;;;0.20;0.20;;;22.90;54.20;;;;;;6159559;28;21194;-46
2022/09/25 05:25:35;;;;;;;;;;;23.00;54.40;;;;;;6157840;28;20538;-50
2022/09/25 05:28:37;;;;;;;0.30;0.10;;;22.70;54.30;;;;;;6153152;28;20399;-47
2022/09/25 05:31:38;;;;;;;;;;;22.60;54.10;;;;;;6151225;28;20045;-48
2022/09/25 05:34:40;;;;;;;0.10;0.10;;;22.30;53.60;;;;;;6152026;28;20217;-49
2022/09/25 05:37:42;;;;;;;0.20;0.20;;;22.80;54.20;;;;;;6150987;28;20056;-49
2022/09/25 05:40:43;;;;;;;;;;;22.50;54.20;;;;;;6153066;28;20049;-51
2022/09/25 05:43:46;;;;;;;;;;;22.60;54.20;;;;;;6150184;28;20031;-47
2022/09/25 05:46:47;;;;;;;0.10;0.10;;;22.30;54.00;;;;;;6150378;28;20017;-47
2022/09/25 05:49:49;;;;;;;;;;;22.70;54.20;;;;;;6155945;28;20046;-47
2022/09/25 05:52:55;;;;;;;0.10;0.10;;;22.30;54.10;;;;;;6155736;28;19964;-48
2022/09/25 05:55:58;;;;;;;0.10;0.10;;;22.70;54.30;;;;;;6154235;28;20481;-47
2022/09/25 05:59:00;;;;;;;0.13;0.10;;;22.80;54.40;;;;;;6137706;28;20046;-46
2022/09/25 06:02:01;;;;;;;;;;;22.50;54.30;;;;;;6148517;28;20169;-46
2022/09/25 06:05:04;;;;;;;0.20;0.10;;;22.40;54.30;;;;;;6144066;28;19925;-46
2022/09/25 06:08:05;;;;;;;0.13;0.13;;;22.60;54.30;;;;;;6125884;28;20841;-47
2022/09/25 06:11:10;;;;;;;0.10;0.10;;;22.40;54.20;;;;;;6146080;28;20354;-49
2022/09/25 06:14:12;;;;;;;0.13;0.13;;;22.60;54.40;;;;;;6146526;28;20187;-50
2022/09/25 06:17:14;;;;;;;0.65;0.10;;;22.40;54.30;;;;;;6147311;28;20127;-48
2022/09/25 06:20:16;;;;;;;;;;;22.50;54.40;;;;;;6144276;28;20164;-50
2022/09/25 06:23:18;;;;;;;0.10;0.10;;;22.90;54.60;;;;;;6144862;28;20252;-49
2022/09/25 06:26:19;;;;;;;0.10;0.10;;;22.60;54.30;;;;;;6148654;28;20717;-47
2022/09/25 06:29:21;;;;;;;;;;;22.70;54.50;;;;;;6146465;28;20152;-50
2022/09/25 06:32:22;;;;;;;0.15;0.03;;;22.80;54.60;;;;;;6145316;28;20240;-47
2022/09/25 06:35:24;;;;;;;0.10;0.10;;;22.60;54.30;;;;;;6140139;28;20613;-45
2022/09/25 06:38:26;;;;;;;0.25;0.10;;;22.80;54.50;;;;;;6140344;28;20900;-47
2022/09/25 06:41:28;;;;;;;0.20;0.20;;;22.40;54.30;;;;;;6146490;28;20038;-48
2022/09/25 06:44:29;;;;;;;0.10;0.10;;;22.60;54.40;;;;;;6152994;28;20046;-47
2022/09/25 06:47:31;;;;;;;;;;;22.70;54.50;;;;;;6148882;28;20058;-50
2022/09/25 06:50:39;;;;;;;0.10;0.10;;;23.00;54.60;;;;;;6152147;28;20346;-47
2022/09/25 06:53:40;;;;;;;0.10;0.10;;;22.40;54.20;;;;;;6151170;28;21073;-47
2022/09/25 06:56:41;;;;;;;;;;;22.80;54.40;;;;;;6156924;28;20464;-50
2022/09/25 06:59:43;;;;;;;0.10;0.10;;;22.70;54.40;;;;;;6149756;28;20171;-47
2022/09/25 07:06:00;;;;;;;0.10;0.10;;;22.60;54.30;;;;;;6146344;28;20459;-47
2022/09/25 07:09:02;;;;;;;0.32;0.20;;;22.60;54.10;;;;;;6144399;28;20290;-47
2022/09/25 07:12:05;;;;;;;0.20;0.10;;;22.60;54.10;;;;;;6143783;28;20227;-46
2022/09/25 07:15:07;;;;;;;0.20;0.20;;;22.80;54.20;;;;;;6144771;28;20507;-49
2022/09/25 07:18:09;;;;;;;0.10;0.10;;;23.00;54.30;;;;;;6139247;28;20659;-46
2022/09/25 07:21:11;;;;;;;;;;;22.60;54.00;;;;;;6145249;28;20129;-46
2022/09/25 07:24:13;;;;;;;0.20;0.20;;;22.90;54.30;;;;;;6143279;28;20217;-46
2022/09/25 07:27:15;;;;;;;0.20;0.10;;;23.10;54.30;;;;;;6138801;28;20391;-48
2022/09/25 07:30:16;;;;;;;0.20;0.20;;;23.00;54.20;;;;;;6140032;28;20361;-45
2022/09/25 07:33:18;;;;;;;0.10;0.10;;;22.90;54.10;;;;;;6144573;28;20337;-46
2022/09/25 07:36:21;;;;;;;0.10;0.10;;;23.10;54.30;;;;;;6142703;28;20218;-49
2022/09/25 07:39:22;;;;;;;0.30;0.20;;;22.70;54.00;;;;;;6143221;28;20243;-48
2022/09/25 07:42:26;;;;;;;;;;;23.10;54.30;;;;;;6143054;28;20172;-47
2022/09/25 07:45:29;;;;;;;0.10;0.10;;;23.10;54.30;;;;;;6141466;28;19925;-48
2022/09/25 07:48:30;;;;;;;0.20;0.10;;;22.50;53.90;;;;;;6127430;28;20042;-46
2022/09/25 07:51:32;;;;;;;0.20;0.17;;;23.00;54.20;;;;;;6129851;28;20050;-51
2022/09/25 07:54:36;;;;;;;0.10;0.10;;;22.70;54.00;;;;;;6142757;28;20145;-47
2022/09/25 07:57:40;;;;;;;0.22;0.20;;;23.10;54.20;;;;;;6144544;28;20317;-48
2022/09/25 08:00:42;;;;;;;0.17;0.10;;;22.90;54.10;;;;;;6138618;28;20076;-49
2022/09/25 08:03:43;;;;;;;0.10;0.10;;;23.10;54.10;;;;;;6147883;28;20869;-46
2022/09/25 08:06:45;;;;;;;0.20;0.20;;;22.90;54.00;;;;;;6142915;28;20050;-48
2022/09/25 08:09:47;;;;;;;0.22;0.20;;;23.00;54.00;;;;;;6144188;28;20115;-45
2022/09/25 08:12:48;;;;;;;;;;;23.00;54.00;;;;;;6147216;28;20260;-48
2022/09/25 08:15:50;;;;;;;;;;;23.20;54.10;;;;;;6147140;28;19957;-47
2022/09/25 08:18:52;;;;;;;0.40;0.20;;;23.20;54.10;;;;;;6143622;28;20352;-47
2022/09/25 08:21:54;;;;;;;0.10;0.10;;;23.40;54.10;;;;;;6148495;28;20272;-49
2022/09/25 08:24:55;;;;;;;0.10;0.10;;;23.00;53.80;;;;;;6146229;28;20349;-47
2022/09/25 08:28:00;;;;;;;;;;;23.30;53.80;;;;;;6147797;28;20336;-45
2022/09/25 08:31:03;;;;;;;0.10;0.10;;;23.20;53.70;;;;;;6145806;28;20684;-49
2022/09/25 08:34:07;;;;;;;0.10;0.10;;;23.20;53.70;;;;;;6130127;28;20050;-47
2022/09/25 08:37:30;;;;;;;0.10;0.10;;;23.00;53.60;;;;;;6144522;28;20604;-46
2022/09/25 08:40:34;;;;;;;0.15;0.10;;;23.00;53.40;;;;;;6145659;28;20385;-46
2022/09/25 08:43:40;;;;;;;0.22;0.10;;;23.10;53.40;;;;;;6142368;28;20042;-49
2022/09/25 08:50:10;;;;;;;0.22;0.20;;;23.10;53.20;;;;;;6141637;28;20307;-47
2022/09/25 08:53:19;;;;;;;0.10;0.10;;;23.20;53.20;;;;;;6121407;28;20046;-49
2022/09/25 08:56:23;;;;;;;0.35;0.10;;;23.30;53.70;;;;;;6138632;28;20161;-46
2022/09/25 08:59:32;;;;;;;0.20;0.20;;;23.30;53.00;;;;;;6141657;28;20116;-48
2022/09/25 09:02:39;;;;;;;0.13;0.13;;;23.40;52.80;;;;;;6137526;28;20289;-47
2022/09/25 09:05:45;;;;;;;0.15;0.10;;;23.30;52.60;;;;;;6122544;28;20569;-46
2022/09/25 09:08:57;;;;;;;0.30;0.20;;;23.30;52.40;;;;;;6142407;28;20396;-48
2022/09/25 09:12:06;;;;;;;0.20;0.10;;;23.20;52.10;;;;;;6129008;28;20576;-46
2022/09/25 09:15:24;;;;;;;0.10;0.10;;;23.60;52.10;;;;;;6148129;28;20326;-49
2022/09/25 09:18:27;;;;;;;0.13;0.13;;;23.50;51.80;;;;;;6143876;28;20062;-47
2022/09/25 09:21:34;;;;;;;0.10;0.10;;;23.30;51.60;;;;;;6141085;28;20612;-49
2022/09/25 09:24:52;;;;;;;0.20;0.20;;;23.40;51.50;;;;;;6121563;28;20071;-49
2022/09/25 09:28:19;;;;;;;0.20;0.10;;;23.30;51.30;;;;;;6140973;28;20160;-47
2022/09/25 09:31:29;;;;;;;0.30;0.28;;;23.40;51.10;;;;;;6138029;28;20056;-47
2022/09/25 09:34:44;;;;;;;0.10;0.10;;;23.10;50.90;;;;;;6132007;28;20455;-49
2022/09/25 09:38:18;;;;;;;0.40;0.20;;;23.30;51.00;;;;;;6121716;28;20042;-48
2022/09/25 09:41:34;;;;;;;0.20;0.15;;;23.40;51.00;;;;;;6138669;28;20053;-49
2022/09/25 09:44:49;;;;;;;0.10;0.00;;;23.30;50.90;;;;;;6137042;28;20384;-48
2022/09/25 09:47:59;;;;;;;0.10;0.10;;;23.00;50.70;;;;;;6143540;28;20575;-48
2022/09/25 09:51:06;;;;;;;0.20;0.10;;;23.30;50.80;;;;;;6141488;28;20038;-48
2022/09/25 09:54:13;;;;;;;0.17;0.17;;;23.30;50.60;;;;;;6124229;28;20522;-47
2022/09/25 09:57:21;;;;;;;0.15;0.10;;;23.30;50.50;;;;;;6119683;28;20765;-46
2022/09/25 10:00:23;;;;;;;0.10;0.10;;;23.40;50.40;;;;;;6146233;28;20832;-48
2022/09/25 10:03:28;;;;;;;0.55;0.10;;;23.20;50.30;;;;;;6126776;28;20474;-49
2022/09/25 10:06:35;;;;;;;0.28;0.20;;;23.60;50.30;;;;;;6126690;28;20271;-46
2022/09/25 10:09:36;;;;;;;0.47;0.20;;;23.20;50.10;;;;;;6149300;28;20042;-47
2022/09/25 10:12:42;;;;;;;0.20;0.20;;;23.60;50.30;;;;;;6146688;28;20223;-51
2022/09/25 10:15:49;;;;;;;0.28;0.10;;;23.20;50.10;;;;;;6146730;28;20046;-46
2022/09/25 10:19:00;;;;;;;0.32;0.25;;;23.40;50.10;;;;;;6145754;28;20556;-48
2022/09/25 10:22:10;;;;;;;0.10;0.10;;;23.40;50.20;;;;;;6141101;28;20089;-45
2022/09/25 10:25:33;;;;;;;0.10;0.10;;;23.60;50.30;;;;;;6143083;28;20524;-47
2022/09/25 10:28:35;;;;;;;0.22;0.10;;;23.40;50.20;;;;;;6137695;28;20049;-47
2022/09/25 10:31:39;;;;;;;0.10;0.10;;;23.50;50.20;;;;;;6140992;28;20053;-45
2022/09/25 10:34:52;;;;;;;0.10;0.10;;;23.40;50.10;;;;;;6142176;28;20048;-47
2022/09/25 10:37:56;;;;;;;0.10;0.10;;;23.20;50.00;;;;;;6141000;28;20162;-51
2022/09/25 10:41:02;;;;;;;0.10;0.10;;;23.20;50.00;;;;;;6124761;28;20451;-51
2022/09/25 10:44:20;;;;;;;0.10;0.10;;;23.60;50.30;;;;;;6132162;28;20921;-49
2022/09/25 10:51:05;;;;;;;0.10;0.10;;;23.30;50.20;;;;;;6143914;28;20388;-52
2022/09/25 10:54:12;;;;;;;0.20;0.20;;;23.60;50.30;;;;;;6123897;28;20270;-46
2022/09/25 10:57:20;;;;;;;0.10;0.10;;;23.50;50.20;;;;;;6124669;28;20820;-45
2022/09/25 11:00:24;;;;;;;0.20;0.20;;;23.30;49.90;;;;;;6143898;28;20648;-50
2022/09/25 11:03:28;;;;;;;0.10;0.05;;;23.20;50.30;;;;;;6144651;28;20597;-48
2022/09/25 11:06:33;;;;;;;0.20;0.10;;;23.40;49.60;;;;;;6145330;28;20076;-48
2022/09/25 11:09:42;;;;;;;0.30;0.10;;;23.40;49.50;;;;;;6123233;28;20275;-48
2022/09/25 11:12:45;;;;;;;0.63;0.15;;;23.40;49.40;;;;;;6147036;28;20314;-45
2022/09/25 11:15:52;;;;;;;0.20;0.10;;;23.50;49.40;;;;;;6142103;28;20042;-48
2022/09/25 11:19:07;;;;;;;0.10;0.10;;;23.70;49.40;;;;;;6124999;28;20080;-47
2022/09/25 11:22:18;;;;;;;0.10;0.10;;;23.50;49.10;;;;;;6121115;28;20088;-49
2022/09/25 11:25:25;;;;;;;0.10;0.10;;;23.40;49.10;;;;;;6143163;28;20521;-47
2022/09/25 11:28:32;;;;;;;0.20;0.20;;;23.00;48.80;;;;;;6142897;28;20076;-47
2022/09/25 11:31:37;;;;;;;0.20;0.20;;;23.10;48.70;;;;;;6126427;28;20488;-48
2022/09/25 11:34:56;;;;;;;0.43;0.20;;;23.40;48.80;;;;;;6119909;28;20046;-45
2022/09/25 11:38:06;;;;;;;0.20;0.20;;;23.20;48.60;;;;;;6148121;28;20049;-49
2022/09/25 11:41:21;;;;;;;0.13;0.13;;;23.40;48.60;;;;;;6148992;28;20858;-47
2022/09/25 11:44:30;;;;;;;0.15;0.15;;;23.30;48.50;;;;;;6144949;28;20052;-47
2022/09/25 11:47:39;;;;;;;0.10;0.10;;;23.40;48.50;;;;;;6132504;28;20809;-49
2022/09/25 11:50:52;;;;;;;0.10;0.10;;;23.20;48.40;;;;;;6145533;28;20042;-48
2022/09/25 11:54:05;;;;;;;0.20;0.10;;;23.20;48.40;;;;;;6142899;28;20287;-48
2022/09/25 11:57:38;;;;;;;0.15;0.10;;;23.40;48.40;;;;;;6143316;28;20115;-46
2022/09/25 12:00:48;;;;;;;0.10;0.10;;;23.40;48.40;;;;;;6144002;28;20041;-48
2022/09/25 12:04:04;;;;;;;0.10;0.10;;;23.30;48.40;;;;;;6139535;28;20458;-45
2022/09/25 12:07:31;;;;;;;0.20;0.20;;;23.60;48.60;;;;;;6127272;28;20061;-45
2022/09/25 12:10:44;;;;;;;0.10;0.10;;;23.20;48.30;;;;;;6145754;28;20046;-47
2022/09/25 12:13:54;;;;;;;0.20;0.17;;;23.50;48.40;;;;;;6126654;28;20513;-46
2022/09/25 12:17:03;;;;;;;0.10;0.10;;;23.40;48.30;;;;;;6141319;28;20377;-47
2022/09/25 12:20:15;;;;;;;0.20;0.10;;;23.40;48.20;;;;;;6141712;28;20559;-49
2022/09/25 12:23:24;;;;;;;0.10;0.10;;;23.40;48.20;;;;;;6141526;28;20048;-47
2022/09/25 12:26:33;;;;;;;0.10;0.10;;;23.30;48.10;;;;;;6122649;28;20475;-48
2022/09/25 12:29:51;;;;;;;0.30;0.20;;;23.80;48.40;;;;;;6140550;28;20126;-45
2022/09/25 12:33:06;;;;;;;0.20;0.20;;;23.40;48.10;;;;;;6120684;28;20081;-48
2022/09/25 12:36:15;;;;;;;0.10;0.10;;;23.50;48.10;;;;;;6136261;28;20049;-46
2022/09/25 12:39:28;;;;;;;0.65;0.30;;;23.30;48.00;;;;;;6134803;28;20827;-50
2022/09/25 12:42:40;;;;;;;0.10;0.10;;;23.20;47.90;;;;;;6102365;28;20395;-49
2022/09/25 12:45:48;;;;;;;0.35;0.10;;;23.70;48.60;;;;;;6137383;28;20150;-47
2022/09/25 12:49:01;;;;;;;0.35;0.17;;;23.70;48.30;;;;;;6141630;28;20198;-47
2022/09/25 12:52:10;;;;;;;0.17;0.10;;;23.50;48.00;;;;;;6112169;28;20595;-47
2022/09/25 12:55:18;;;;;;;0.20;0.17;;;23.60;47.90;;;;;;6143790;28;20451;-46
2022/09/25 12:58:28;;;;;;;0.32;0.20;;;23.40;47.70;;;;;;6143552;28;20472;-47
2022/09/25 13:01:45;;;;;;;0.52;0.10;;;23.60;47.80;;;;;;6119942;28;20041;-44
2022/09/25 13:05:01;;;;;;;0.10;0.10;;;23.20;47.50;;;;;;6138952;28;20183;-46
2022/09/25 13:08:09;;;;;;;0.10;0.10;;;23.60;47.70;;;;;;6136017;28;20041;-48
2022/09/25 13:11:18;;;;;;;0.20;0.20;;;23.30;47.40;;;;;;6138046;28;20637;-47
2022/09/25 13:14:31;;;;;;;0.10;0.10;;;23.30;47.40;;;;;;6116384;28;20449;-52
2022/09/25 13:17:32;;;;;;;0.20;0.10;;;23.40;47.30;;;;;;6135250;28;20272;-47
2022/09/25 13:20:47;;;;;;;0.10;0.10;;;23.50;47.30;;;;;;6131689;28;20471;-47
2022/09/25 13:23:52;;;;;;;0.10;0.10;;;23.40;47.20;;;;;;6138685;28;20042;-45
2022/09/25 13:27:03;;;;;;;0.20;0.20;;;23.60;47.30;;;;;;6116617;28;20349;-46
2022/09/25 13:30:05;;;;;;;0.10;0.10;;;23.40;47.20;;;;;;6130226;28;20984;-51
2022/09/25 13:33:20;;;;;;;0.10;0.10;;;23.60;47.30;;;;;;6133118;28;20234;-47
2022/09/25 13:36:36;;;;;;;0.13;0.10;;;23.90;47.50;;;;;;6136435;28;20046;-47
2022/09/25 13:43:16;;;;;;;0.40;0.20;;;23.40;47.40;;;;;;6138135;28;20078;-47
2022/09/25 13:46:23;;;;;;;0.10;0.00;;;23.10;47.40;;;;;;6139260;28;20645;-47
2022/09/25 13:49:35;;;;;;;0.22;0.10;;;23.50;47.90;;;;;;6128574;28;20636;-47
2022/09/25 13:53:15;;;;;;;0.45;0.30;;;23.40;48.10;;;;;;6139828;28;20644;-46
2022/09/25 13:56:23;;;;;;;0.20;0.13;;;23.50;48.40;;;;;;6112847;28;20053;-46
2022/09/25 13:59:37;;;;;;;0.20;0.20;;;23.80;48.60;;;;;;6122194;28;21000;-47
2022/09/25 14:02:46;;;;;;;0.15;0.15;;;23.30;48.60;;;;;;6132794;28;20200;-45
2022/09/25 14:05:51;;;;;;;0.15;0.15;;;23.60;48.90;;;;;;6136419;28;21136;-50
2022/09/25 14:08:55;;;;;;;0.10;0.10;;;23.60;49.00;;;;;;6134185;28;20176;-49
2022/09/25 14:12:06;;;;;;;0.30;0.20;;;23.30;48.90;;;;;;6142465;28;20159;-46
2022/09/25 14:15:16;;;;;;;0.10;0.10;;;23.20;48.90;;;;;;6141751;28;20543;-49
2022/09/25 14:18:21;;;;;;;0.10;0.10;;;23.40;48.90;;;;;;6116412;28;20157;-48
2022/09/25 14:21:25;;;;;;;0.10;0.10;;;23.20;48.80;;;;;;6139883;28;20336;-47
2022/09/25 14:24:28;;;;;;;0.15;0.15;;;23.50;48.90;;;;;;6142130;28;20532;-46
2022/09/25 14:27:30;;;;;;;0.10;0.10;;;23.10;48.50;;;;;;6107666;28;20268;-47
2022/09/25 14:30:31;;;;;;;0.20;0.20;;;23.60;48.70;;;;;;6139784;28;21392;-46
2022/09/25 14:33:48;;;;;;;0.45;0.10;;;23.30;48.40;;;;;;6140253;28;20118;-50
2022/09/25 14:37:03;;;;;;;0.10;0.10;;;23.40;48.40;;;;;;6141471;28;20149;-48
2022/09/25 14:40:16;;;;;;;0.20;0.20;;;23.30;48.30;;;;;;6148512;28;20058;-50
2022/09/25 14:43:41;;;;;;;0.10;0.10;;;23.40;48.40;;;;;;6135373;28;20080;-45
2022/09/25 14:46:44;;;;;;;0.20;0.20;;;23.50;48.50;;;;;;6140996;28;20045;-47
2022/09/25 14:49:50;;;;;;;0.20;0.20;;;23.60;48.50;;;;;;6143743;28;20046;-46
2022/09/25 14:52:56;;;;;;;0.10;0.10;;;23.80;48.60;;;;;;6143143;28;20425;-49
2022/09/25 14:56:00;;;;;;;0.10;0.10;;;23.40;48.30;;;;;;6140698;28;20046;-48
2022/09/25 14:59:10;;;;;;;0.20;0.20;;;24.20;48.70;;;;;;6117707;28;20177;-45
2022/09/25 15:02:17;;;;;;;0.40;0.20;;;23.10;48.00;;;;;;6140557;28;20481;-49
2022/09/25 15:05:29;;;;;;;0.10;0.10;;;23.60;48.20;;;;;;6145030;28;20476;-46
2022/09/25 15:08:33;;;;;;;;;;;23.40;47.90;;;;;;6122930;28;21201;-46
2022/09/25 15:11:40;;;;;;;0.10;0.10;;;23.40;48.00;;;;;;6146039;28;20361;-48
2022/09/25 15:14:58;;;;;;;0.30;0.20;;;23.40;47.90;;;;;;6126509;28;20061;-47
2022/09/25 15:18:01;;;;;;;0.45;0.20;;;23.40;48.10;;;;;;6142555;28;20089;-48
2022/09/25 15:21:06;;;;;;;0.20;0.10;;;23.30;47.40;;;;;;6144584;28;20046;-48
2022/09/25 15:24:13;;;;;;;0.10;0.10;;;23.60;47.40;;;;;;6137742;28;20053;-47
2022/09/25 15:27:15;;;;;;;0.10;0.10;;;23.80;47.30;;;;;;6122242;28;20168;-48
2022/09/25 15:30:18;;;;;;;0.25;0.13;;;23.50;47.10;;;;;;6139931;28;20038;-46
2022/09/25 15:33:21;;;;;;;0.20;0.10;;;23.70;47.10;;;;;;6135818;28;20150;-45
2022/09/25 15:36:23;;;;;;;0.20;0.20;;;23.30;46.80;;;;;;6115067;28;20869;-47
2022/09/25 15:39:27;;;;;;;0.10;0.10;;;23.20;46.70;;;;;;6112858;28;20144;-47
2022/09/25 15:42:29;;;;;;;0.20;0.10;;;23.40;46.60;;;;;;6138550;28;20125;-47
2022/09/25 15:45:41;;;;;;;0.10;0.10;;;23.40;46.50;;;;;;6141041;28;20050;-49
2022/09/25 15:48:51;;;;;;;0.10;0.10;;;23.60;46.20;;;;;;6128229;28;20608;-48
2022/09/25 15:51:59;;;;;;;0.20;0.10;;;23.20;45.80;;;;;;6144576;28;20045;-48
2022/09/25 15:55:05;;;;;;;0.10;0.10;;;23.30;45.70;;;;;;6114193;28;20124;-50
2022/09/25 15:58:12;;;;;;;0.63;0.40;;;23.50;45.70;;;;;;6147742;28;22098;-50
2022/09/25 16:07:48;;;;;;;0.30;0.22;;;23.70;45.50;;;;;;6151890;28;20137;-51
2022/09/25 16:11:03;;;;;;;0.10;0.10;;;23.50;45.40;;;;;;6150374;28;20069;-50
2022/09/25 16:14:19;;;;;;;0.10;0.10;;;23.30;45.30;;;;;;6151207;28;20061;-51
2022/09/25 16:17:24;;;;;;;0.10;0.10;;;23.70;45.60;;;;;;6150232;28;20045;-50
2022/09/25 16:20:29;;;;;;;0.10;0.10;;;23.40;45.40;;;;;;6151824;28;20038;-50
2022/09/25 16:23:31;;;;;;;0.35;0.10;;;23.60;45.60;;;;;;6132398;28;20073;-50
2022/09/25 16:26:37;;;;;;;0.15;0.10;;;23.40;45.50;;;;;;6150838;28;20301;-52
2022/09/25 16:29:43;;;;;;;0.20;0.20;;;23.40;45.50;;;;;;6156009;28;21015;-48
2022/09/25 16:32:48;;;;;;;0.20;0.20;;;23.30;45.40;;;;;;6155845;28;20034;-51
2022/09/25 16:35:50;;;;;;;0.10;0.10;;;23.50;44.90;;;;;;6160948;28;20911;-51
2022/09/25 16:39:22;;;;;;;0.20;0.20;;;23.50;45.40;;;;;;6140284;28;20045;-52
2022/09/25 16:42:29;;;;;;;0.10;0.10;;;23.40;45.10;;;;;;6135247;28;20057;-51
2022/09/25 16:45:33;;;;;;;0.50;0.20;;;23.40;45.60;;;;;;6132489;28;20099;-49
2022/09/25 16:48:38;;;;;;;0.10;0.10;;;23.60;45.00;;;;;;6126967;28;20088;-52